Time;durP1;ratioP1;P1;durP2;ratioP2;P2;SDS_P1;SDS_P2;PMS_P1;PMS_P2;Temp;Humidity;BMP_temperature;BMP_pressure;BME280_temperature;BME280_humidity;BME280_pressure;Samples;Min_cycle;Max_cycle;Signal;HPM_P1;HPM_P2
2021/07/28 00:02:20;;;;;;;5.92;4.72;;;;;;;27.70;45.95;99829.25;1864700;105;25493;-80
2021/07/28 00:06:02;;;;;;;7.45;4.60;;;;;;;27.62;45.97;99819.45;1865366;104;25939;-75
2021/07/28 00:14:08;;;;;;;4.80;4.40;;;;;;;27.54;45.97;99807.84;1860728;104;25894;-80
2021/07/28 00:26:02;;;;;;;;;;;;;;;;;;;;;
2021/07/28 00:29:31;;;;;;;4.97;4.35;;;;;;;27.41;45.94;99815.30;1928283;101;26374;-75
2021/07/28 00:33:41;;;;;;;4.60;4.25;;;;;;;27.38;45.95;99816.33;2038767;94;25857;-80
2021/07/28 00:37:40;;;;;;;5.90;4.97;;;;;;;27.35;45.93;99814.30;2016622;94;26711;-80
2021/07/28 00:41:47;;;;;;;4.65;4.17;;;;;;;27.30;45.93;99807.83;2093994;94;25810;-79
2021/07/28 00:45:31;;;;;;;6.00;4.10;;;;;;;27.28;45.92;99805.25;2063454;95;25834;-79
2021/07/28 00:49:19;;;;;;;5.45;4.30;;;;;;;27.26;45.93;99805.80;2058810;95;25838;-81
2021/07/28 00:53:18;;;;;;;;;;;;;;;;;;;;;
2021/07/28 00:57:02;;;;;;;;;;;;;;;;;;;;;
2021/07/28 01:00:54;;;;;;;7.37;4.05;;;;;;;27.13;46.08;99806.07;1904725;100;25838;-79
2021/07/28 01:04:20;;;;;;;4.40;3.95;;;;;;;27.09;46.13;99805.34;1904514;100;26553;-79
2021/07/28 01:11:53;;;;;;;5.28;4.75;;;;;;;27.04;46.15;99815.44;1781478;108;26303;-80
2021/07/28 01:16:06;;;;;;;5.37;4.87;;;;;;;27.00;46.23;99816.56;1782786;107;25542;-78
2021/07/28 01:19:48;;;;;;;4.62;4.10;;;;;;;26.96;46.32;99816.30;1803672;106;25942;-77
2021/07/28 01:23:29;;;;;;;4.85;4.20;;;;;;;26.95;46.40;99809.72;1801127;106;25979;-76
2021/07/28 01:27:01;;;;;;;4.60;4.20;;;;;;;26.91;46.45;99817.52;1817756;107;25904;-80
2021/07/28 01:31:10;;;;;;;5.33;4.92;;;;;;;26.87;46.53;99821.31;1793878;108;26116;-75
2021/07/28 01:34:58;;;;;;;5.87;4.33;;;;;;;26.82;46.61;99824.20;1798804;107;26135;-80
2021/07/28 01:38:32;;;;;;;6.53;4.30;;;;;;;26.78;46.74;99827.98;1787178;108;25913;-80
2021/07/28 01:42:57;;;;;;;5.37;4.70;;;;;;;26.74;46.78;99833.11;1785923;108;25849;-78
2021/07/28 01:46:37;;;;;;;5.92;4.87;;;;;;;26.68;46.87;99830.75;1819174;107;25913;-79
2021/07/28 01:50:37;;;;;;;6.78;4.60;;;;;;;26.54;47.06;99830.12;1813766;107;25706;-79
2021/07/28 01:54:23;;;;;;;5.30;4.90;;;;;;;26.46;47.20;99826.92;1804905;107;25919;-78
2021/07/28 01:58:19;;;;;;;6.35;5.10;;;;;;;26.42;47.37;99830.70;1887512;100;25845;-79
2021/07/28 02:02:10;;;;;;;;;;;;;;;;;;;;;
2021/07/28 02:05:56;;;;;;;4.87;4.53;;;;;;;26.37;47.52;99817.59;1872679;103;25743;-78
2021/07/28 02:09:29;;;;;;;5.00;4.53;;;;;;;26.33;47.58;99821.36;1871326;103;25950;-77
2021/07/28 02:21:40;;;;;;;5.08;4.70;;;;;;;26.27;47.73;99819.85;1823232;106;25680;-80
2021/07/28 02:25:36;;;;;;;6.53;4.80;;;;;;;26.26;47.76;99820.80;1736608;110;26639;-77
2021/07/28 02:29:16;;;;;;;5.22;4.72;;;;;;;26.25;47.78;99816.38;1731264;111;25765;-75
2021/07/28 02:32:48;;;;;;;6.37;4.83;;;;;;;26.24;47.82;99813.80;1730877;111;25990;-81
2021/07/28 02:36:27;;;;;;;5.42;4.92;;;;;;;26.22;47.84;99811.66;1696176;114;25880;-75
2021/07/28 02:40:06;;;;;;;4.47;4.17;;;;;;;26.20;47.87;99807.75;1696538;113;25959;-75
2021/07/28 02:43:57;;;;;;;4.78;4.37;;;;;;;26.19;47.90;99806.47;1712437;112;25945;-80
2021/07/28 02:47:34;;;;;;;6.40;4.50;;;;;;;26.14;47.91;99806.23;1715923;112;26029;-75
2021/07/28 02:51:15;;;;;;;6.08;4.50;;;;;;;26.12;47.97;99801.45;1699155;112;26043;-75
2021/07/28 02:54:49;;;;;;;6.47;4.97;;;;;;;26.08;48.02;99808.34;1739805;110;26122;-79
2021/07/28 02:58:30;;;;;;;6.45;4.65;;;;;;;26.03;48.09;99808.58;1747869;110;26046;-80
2021/07/28 03:02:14;;;;;;;6.27;5.37;;;;;;;26.00;48.16;99811.41;1764310;108;25935;-77
2021/07/28 03:05:53;;;;;;;5.12;4.72;;;;;;;25.98;48.25;99808.41;1766764;109;25626;-80
2021/07/28 03:13:36;;;;;;;6.67;4.78;;;;;;;25.97;48.30;99804.88;1868340;102;25842;-78
2021/07/28 03:17:21;;;;;;;5.30;4.60;;;;;;;25.98;48.30;99808.41;1880409;102;25750;-74
2021/07/28 03:21:03;;;;;;;5.28;4.87;;;;;;;25.97;48.30;99803.53;1878244;102;25944;-74
2021/07/28 03:24:34;;;;;;;5.87;4.53;;;;;;;25.96;48.39;99811.64;1990342;94;25528;-74
2021/07/28 03:28:06;;;;;;;4.62;4.22;;;;;;;25.96;48.41;99822.33;2081453;91;25821;-77
2021/07/28 03:31:58;;;;;;;6.25;5.37;;;;;;;25.97;48.41;99817.36;2114431;90;25529;-81
2021/07/28 03:35:26;;;;;;;9.53;4.85;;;;;;;25.95;48.43;99820.57;2048955;94;25882;-77
2021/07/28 03:39:11;;;;;;;7.47;4.47;;;;;;;25.88;48.47;99823.53;2047291;94;25788;-80
2021/07/28 03:42:37;;;;;;;5.15;4.45;;;;;;;25.87;48.55;99820.48;2013563;96;26067;-78
2021/07/28 03:46:22;;;;;;;7.60;4.62;;;;;;;25.89;48.57;99823.09;2002101;96;25333;-79
2021/07/28 03:50:21;;;;;;;;;;;;;;;;;;;;;
2021/07/28 04:01:29;;;;;;;8.08;4.92;;;;;;;26.01;48.46;99825.14;2097306;91;25858;-74
2021/07/28 04:05:05;;;;;;;4.55;4.15;;;;;;;25.98;48.47;99819.95;2101456;91;25725;-79
2021/07/28 04:08:29;;;;;;;12.30;5.08;;;;;;;25.98;48.47;99821.28;2099753;92;25852;-79
2021/07/28 04:11:52;;;;;;;6.60;4.62;;;;;;;25.98;48.46;99822.62;2098345;91;25872;-76
2021/07/28 04:15:58;;;;;;;7.12;4.78;;;;;;;26.00;48.46;99818.55;2093511;91;25763;-78
2021/07/28 04:19:20;;;;;;;4.42;4.03;;;;;;;26.00;48.47;99815.88;2092210;92;26963;-74
2021/07/28 04:27:02;;;;;;;;;;;;;;;;;;;;;
2021/07/28 04:30:12;;;;;;;4.97;4.45;;;;;;;26.04;48.38;99824.13;2114929;91;25741;-78
2021/07/28 04:33:42;;;;;;;4.78;4.17;;;;;;;26.08;48.37;99821.70;2139353;91;25360;-76
2021/07/28 04:37:31;;;;;;;5.28;4.78;;;;;;;26.11;48.30;99817.55;2128872;91;25929;-78
2021/07/28 04:41:16;;;;;;;5.33;4.35;;;;;;;26.13;48.32;99818.34;2102448;93;25768;-79
2021/07/28 04:44:49;;;;;;;4.97;3.58;;;;;;;26.14;48.28;99810.24;2105966;92;25724;-78
2021/07/28 04:48:15;;;;;;;4.85;4.17;;;;;;;26.19;48.27;99815.82;2095092;92;25891;-76
2021/07/28 04:51:44;;;;;;;4.95;3.85;;;;;;;26.23;48.22;99824.10;2088419;89;25972;-74
2021/07/28 04:55:36;;;;;;;5.10;4.17;;;;;;;26.27;48.20;99823.00;2176685;88;25711;-80
2021/07/28 04:59:28;;;;;;;5.05;3.90;;;;;;;26.29;48.21;99819.31;2247651;85;25685;-77
2021/07/28 05:02:58;;;;;;;6.70;4.10;;;;;;;26.34;48.17;99813.25;2219933;85;25844;-73
2021/07/28 05:06:46;;;;;;;;;;;;;;;;;;;;;
2021/07/28 05:10:24;;;;;;;6.42;4.30;;;;;;;26.46;48.12;99816.23;2243006;85;26538;-80
2021/07/28 05:13:59;;;;;;;5.22;4.72;;;;;;;26.52;48.04;99818.16;2232653;85;25823;-78
2021/07/28 05:21:12;;;;;;;10.08;4.62;;;;;;;26.64;48.16;99814.48;2138848;91;25741;-75
2021/07/28 05:25:09;;;;;;;;;;;;;;;;;;;;;
2021/07/28 05:28:06;;;;;;;9.63;3.77;;;;;;;26.79;48.16;99805.64;2135935;90;25707;-80
2021/07/28 05:31:41;;;;;;;5.62;4.42;;;;;;;26.96;48.04;99804.27;2144053;90;25666;-80
2021/07/28 05:35:28;;;;;;;10.60;5.22;;;;;;;27.15;47.84;99798.84;2135037;90;25714;-75
2021/07/28 05:39:01;;;;;;;11.53;5.20;;;;;;;27.34;47.60;99800.05;2085697;92;25755;-80
2021/07/28 05:42:48;;;;;;;4.20;3.83;;;;;;;27.50;47.34;99796.88;2069782;93;25417;-79
2021/07/28 05:46:38;;;;;;;7.03;3.83;;;;;;;27.67;47.08;99803.97;2068937;93;25688;-79
2021/07/28 05:50:41;;;;;;;;;;;;;;;;;;;;;
2021/07/28 05:54:16;;;;;;;8.88;3.87;;;;;;;27.91;46.53;99807.14;1970566;99;26008;-81
2021/07/28 05:58:03;;;;;;;8.65;3.75;;;;;;;28.03;46.36;99814.92;1969857;99;25851;-74
2021/07/28 06:01:46;;;;;;;7.22;5.28;;;;;;;28.15;46.10;99810.20;1975136;97;25850;-80
2021/07/28 06:05:31;;;;;;;5.90;3.47;;;;;;;28.29;45.75;99807.20;2010142;96;25854;-76
2021/07/28 06:09:13;;;;;;;3.80;3.03;;;;;;;28.48;45.62;99811.87;2009269;96;25781;-76
2021/07/28 06:12:52;;;;;;;7.65;3.77;;;;;;;28.48;45.62;99811.87;2014124;96;25778;-75
2021/07/28 06:16:53;;;;;;;4.50;3.70;;;;;;;28.60;45.12;99808.45;2013730;95;25884;-76
2021/07/28 06:20:41;;;;;;;;;;;;;;;;;;;;;
2021/07/28 06:23:53;;;;;;;9.43;3.45;;;;;;;29.03;44.37;99808.56;2037410;95;25732;-80
2021/07/28 06:27:30;;;;;;;11.93;4.00;;;;;;;29.24;44.02;99805.49;2039609;95;25786;-79
2021/07/28 06:31:15;;;;;;;9.90;3.62;;;;;;;29.42;43.75;99812.37;2124731;88;26752;-75
2021/07/28 06:39:01;;;;;;;6.75;3.02;;;;;;;30.00;42.96;99813.13;1965536;98;25918;-78
2021/07/28 06:43:25;;;;;;;8.48;4.15;;;;;;;30.23;42.49;99816.53;1936582;99;26055;-80
2021/07/28 06:47:25;;;;;;;8.28;3.60;;;;;;;30.45;42.08;99816.44;1951134;99;25887;-79
2021/07/28 06:51:05;;;;;;;7.60;2.92;;;;;;;30.65;41.57;99818.63;1879554;101;25796;-79
2021/07/28 06:59:58;;;;;;;;;;;;;;;;;;;;;
2021/07/28 07:18:47;;;;;;;;;;;;;;;;;;;;;
2021/07/28 07:24:17;;;;;;;;;;;;;;;;;;;;;
2021/07/28 07:37:07;;;;;;;;;;;;;;;;;;;;;
2021/07/28 07:40:42;;;;;;;4.17;2.95;;;;;;;31.81;38.68;99791.98;1742712;111;25777;-77
2021/07/28 07:44:12;;;;;;;4.22;2.85;;;;;;;31.74;38.70;99786.68;1747808;111;25995;-80
2021/07/28 07:47:52;;;;;;;2.97;2.73;;;;;;;31.68;38.68;99786.64;1716499;113;25906;-75
2021/07/28 07:51:53;;;;;;;4.30;2.80;;;;;;;31.60;38.71;99787.70;1698710;112;26532;-82
2021/07/28 07:55:24;;;;;;;8.28;2.70;;;;;;;31.53;38.72;99777.49;1745611;110;26095;-78
2021/07/28 07:58:53;;;;;;;8.00;2.87;;;;;;;31.47;38.77;99776.95;1774988;104;25829;-75
2021/07/28 08:02:42;;;;;;;9.50;3.12;;;;;;;31.42;38.75;99773.75;1911279;98;25801;-80
2021/07/28 08:11:03;;;;;;;;;;;;;;;;;;;;;
2021/07/28 08:14:54;;;;;;;4.37;3.08;;;;;;;31.43;38.91;99771.42;1941201;97;25965;-79
2021/07/28 08:18:32;;;;;;;2.98;2.67;;;;;;;31.49;38.85;99775.52;1950027;98;26158;-80
2021/07/28 08:22:34;;;;;;;;;;;;;;;;;;;;;
2021/07/28 08:26:13;;;;;;;8.23;2.80;;;;;;;31.56;38.90;99774.09;1915448;101;25937;-78
2021/07/28 08:30:05;;;;;;;3.27;2.98;;;;;;;31.61;38.78;99771.90;1898278;101;25877;-75
2021/07/28 08:33:34;;;;;;;3.20;2.83;;;;;;;31.69;38.77;99768.62;1868056;104;25775;-79
2021/07/28 08:42:09;;;;;;;6.30;3.42;;;;;;;32.07;38.62;99775.25;1840093;105;26668;-80
2021/07/28 08:49:46;;;;;;;4.33;3.35;;;;;;;32.98;37.64;99775.05;1750094;110;25942;-80
2021/07/28 08:57:34;;;;;;;3.05;2.70;;;;;;;33.75;36.69;99779.16;1751564;110;25868;-81
2021/07/28 09:01:04;;;;;;;3.33;2.87;;;;;;;34.82;35.77;99779.58;1728998;113;26044;-80
2021/07/28 09:08:53;;;;;;;5.17;2.83;;;;;;;36.80;33.50;99777.86;1780349;108;26164;-78
2021/07/28 09:12:48;;;;;;;3.20;2.67;;;;;;;37.80;32.46;99781.22;1782531;108;25948;-79
2021/07/28 09:16:35;;;;;;;3.47;2.85;;;;;;;38.52;31.40;99785.36;1785310;108;25791;-79
2021/07/28 09:24:23;;;;;;;3.70;3.12;;;;;;;38.94;30.39;99788.22;1856330;104;25854;-82
2021/07/28 09:28:40;;;;;;;6.35;2.87;;;;;;;39.05;30.19;99782.51;1883597;103;43995;-79
2021/07/28 09:33:32;;;;;;;;;;;;;;;;;;;;;
2021/07/28 09:37:35;;;;;;;;;;;;;;;;;;;;;
2021/07/28 09:41:44;;;;;;;6.67;3.02;;;;;;;40.98;28.26;99773.66;1882534;100;25948;-78
2021/07/28 09:45:25;;;;;;;3.17;2.87;;;;;;;41.46;28.08;99776.44;1906460;99;25697;-79
2021/07/28 09:49:44;;;;;;;5.70;3.25;;;;;;;41.94;27.66;99767.62;1861365;102;25847;-81
2021/07/28 10:15:16;;;;;;;3.90;2.25;;;;;;;43.43;25.39;99768.23;2568445;75;26332;-80
2021/07/28 10:19:25;;;;;;;4.33;2.37;;;;;;;43.56;25.13;99762.93;2509873;77;25793;-79
2021/07/28 10:23:02;;;;;;;5.90;2.45;;;;;;;43.76;24.96;99759.05;2494331;78;26322;-76
2021/07/28 10:27:03;;;;;;;4.75;2.87;;;;;;;43.89;24.57;99758.34;2556287;77;25810;-80
2021/07/28 10:34:33;;;;;;;8.30;2.65;;;;;;;44.15;24.05;99752.79;2539538;77;25940;-80
2021/07/28 10:38:23;;;;;;;3.62;2.83;;;;;;;44.29;23.90;99749.14;2532882;77;25737;-81
2021/07/28 10:41:49;;;;;;;2.45;2.25;;;;;;;44.43;23.64;99748.75;2526258;76;25757;-79
2021/07/28 10:45:32;;;;;;;3.37;3.10;;;;;;;44.53;23.43;99754.74;2534660;76;25635;-78
2021/07/28 10:49:03;;;;;;;;;;;;;;;44.62;23.18;99743.05;2534414;76;25639;-75
2021/07/28 10:53:13;;;;;;;;;;;;;;;;;;;;;
2021/07/28 10:56:25;;;;;;;3.80;2.60;;;;;;;44.74;23.17;99748.36;2531306;76;25673;-80
2021/07/28 10:59:53;;;;;;;3.98;2.80;;;;;;;44.72;23.01;99743.58;2537602;78;25754;-75
2021/07/28 11:03:35;;;;;;;5.90;2.52;;;;;;;44.71;22.91;99735.86;2512749;77;25637;-77
2021/07/28 11:07:26;;;;;;;;;;;;;;;;;;;;;
2021/07/28 11:11:00;;;;;;;6.40;2.85;;;;;;;44.80;22.96;99740.69;2442874;79;25778;-77
2021/07/28 11:18:50;;;;;;;2.95;2.70;;;;;;;44.82;22.79;99723.44;2437011;80;25786;-76
2021/07/28 11:22:36;;;;;;;8.50;2.77;;;;;;;44.86;22.80;99723.91;2430026;80;25706;-77
2021/07/28 11:26:31;;;;;;;2.95;2.75;;;;;;;44.87;22.80;99724.22;2442388;78;25676;-79
2021/07/28 11:34:44;;;;;;;4.60;2.77;;;;;;;45.00;22.66;99726.52;2248511;87;25434;-79
2021/07/28 11:38:38;;;;;;;5.12;2.85;;;;;;;45.06;22.56;99721.23;2249170;86;25796;-80
2021/07/28 11:42:14;;;;;;;3.00;2.80;;;;;;;45.14;22.51;99717.83;2217307;88;25298;-80
2021/07/28 11:45:50;;;;;;;2.60;2.40;;;;;;;45.23;22.39;99715.76;2228561;86;25820;-80
2021/07/28 11:50:10;;;;;;;2.67;2.47;;;;;;;45.29;22.33;99712.16;2204082;87;25921;-78
2021/07/28 11:57:05;;;;;;;3.62;2.72;;;;;;;45.42;22.05;99702.57;2100103;92;25805;-79
2021/07/28 12:04:41;;;;;;;2.92;2.72;;;;;;;45.19;21.91;99701.53;2072312;94;25935;-78
2021/07/28 12:08:35;;;;;;;4.12;2.92;;;;;;;45.20;21.78;99687.28;2118920;92;25720;-79
2021/07/28 12:12:38;;;;;;;;;;;;;;;;;;;;;
2021/07/28 12:16:18;;;;;;;2.87;2.67;;;;;;;45.39;21.66;99682.88;2188114;87;25741;-76
2021/07/28 12:20:21;;;;;;;2.80;2.60;;;;;;;45.44;21.50;99681.73;2251317;86;25803;-75
2021/07/28 12:24:23;;;;;;;3.00;2.72;;;;;;;45.43;21.26;99670.38;2191117;86;25817;-77
2021/07/28 12:28:44;;;;;;;2.80;2.60;;;;;;;45.46;21.16;99677.76;2181532;88;25750;-80
2021/07/28 12:33:01;;;;;;;3.77;2.92;;;;;;;45.49;21.06;99670.96;2179204;88;25862;-80
2021/07/28 12:37:18;;;;;;;3.10;2.80;;;;;;;45.44;20.97;99663.84;2178750;88;25834;-80
2021/07/28 12:41:33;;;;;;;3.05;2.60;;;;;;;45.33;20.96;99657.05;2048206;91;25823;-78
2021/07/28 12:45:18;;;;;;;5.28;3.17;;;;;;;45.27;20.95;99651.52;2068819;94;25733;-79
2021/07/28 12:49:39;;;;;;;3.47;3.17;;;;;;;45.27;20.95;99651.52;2038802;96;25779;-77
2021/07/28 12:57:38;;;;;;;;;;;;;;;;;;;;;
2021/07/28 13:01:12;;;;;;;3.22;2.92;;;;;;;45.03;21.09;99644.61;1890329;98;26015;-81
2021/07/28 13:08:25;;;;;;;4.15;3.40;;;;;;;44.89;21.26;99634.09;1904644;99;25895;-80
2021/07/28 13:12:08;;;;;;;3.37;3.10;;;;;;;44.75;21.50;99609.81;1948249;98;25819;-80
2021/07/28 13:15:51;;;;;;;3.45;3.05;;;;;;;44.59;20.90;99619.74;1911864;100;25775;-79
2021/07/28 13:19:14;;;;;;;5.45;3.10;;;;;;;44.59;20.90;99619.74;1937903;100;25866;-79
2021/07/28 13:22:53;;;;;;;3.75;3.45;;;;;;;44.45;21.66;99620.20;2014030;95;25947;-77
2021/07/28 13:26:24;;;;;;;3.17;2.98;;;;;;;44.34;21.30;99621.63;2066531;94;25782;-78
2021/07/28 13:29:52;;;;;;;3.45;3.08;;;;;;;44.21;21.30;99614.63;2070370;93;25782;-78
2021/07/28 13:33:12;;;;;;;3.15;2.65;;;;;;;44.13;21.21;99609.30;2117294;91;25803;-79
2021/07/28 13:36:37;;;;;;;3.50;3.15;;;;;;;43.96;21.29;99608.23;2125748;91;25429;-79
2021/07/28 13:40:08;;;;;;;4.00;2.87;;;;;;;43.89;21.44;99605.92;2201792;85;26699;-79
2021/07/28 13:43:26;;;;;;;5.75;3.25;;;;;;;43.86;21.55;99607.70;2230662;86;25833;-80
2021/07/28 13:47:02;;;;;;;5.00;2.87;;;;;;;43.82;21.64;99600.38;2252269;85;25750;-78
2021/07/28 13:57:53;;;;;;;7.53;3.25;;;;;;;43.55;21.75;99590.22;2115143;90;25853;-77
2021/07/28 14:01:47;;;;;;;3.72;3.42;;;;;;;43.48;21.78;99583.27;2030699;93;26842;-75
2021/07/28 14:05:27;;;;;;;3.33;3.02;;;;;;;43.43;21.82;99585.73;2064834;93;25882;-79
2021/07/28 14:08:58;;;;;;;6.03;3.47;;;;;;;43.28;21.95;99567.14;1969709;98;25935;-80
2021/07/28 14:12:28;;;;;;;3.20;3.00;;;;;;;43.08;22.05;99572.38;1968746;99;25695;-76
2021/07/28 14:16:01;;;;;;;4.75;3.42;;;;;;;42.84;22.22;99565.36;1908698;102;25808;-79
2021/07/28 14:19:28;;;;;;;4.53;3.37;;;;;;;42.59;22.32;99564.27;1830449;103;25945;-78
2021/07/28 14:23:16;;;;;;;3.10;2.77;;;;;;;42.40;22.40;99564.36;1827663;105;25918;-77
2021/07/28 14:26:36;;;;;;;3.72;2.83;;;;;;;42.22;22.49;99555.62;1771928;109;26274;-79
2021/07/28 14:29:57;;;;;;;5.43;2.77;;;;;;;41.85;22.51;99545.55;1755691;111;26094;-79
2021/07/28 14:33:18;;;;;;;4.83;2.85;;;;;;;41.85;22.51;99545.55;1800260;106;25906;-79
2021/07/28 14:36:44;;;;;;;4.08;2.83;;;;;;;41.66;22.83;99544.22;1853427;101;25806;-78
2021/07/28 14:40:08;;;;;;;8.85;2.92;;;;;;;41.46;22.85;99541.99;1939176;100;25778;-79
2021/07/28 14:43:35;;;;;;;2.90;2.70;;;;;;;41.24;22.92;99532.72;1873046;103;25907;-79
2021/07/28 14:46:56;;;;;;;3.67;2.92;;;;;;;41.12;23.00;99535.56;1937568;100;33347;-77
2021/07/28 14:50:17;;;;;;;4.90;3.23;;;;;;;40.97;23.07;99533.23;1967581;97;25933;-79
2021/07/28 14:53:51;;;;;;;3.08;2.87;;;;;;;40.79;23.09;99519.34;2081597;93;25807;-78
2021/07/28 14:57:14;;;;;;;5.20;2.77;;;;;;;40.65;23.15;99517.90;2091388;93;25808;-78
2021/07/28 15:00:39;;;;;;;2.87;2.67;;;;;;;40.51;23.17;99506.67;2089866;93;25736;-79
2021/07/28 15:04:30;;;;;;;3.27;3.00;;;;;;;40.39;23.19;99505.86;2144777;88;25711;-79
2021/07/28 15:08:18;;;;;;;5.42;3.40;;;;;;;40.25;23.25;99510.20;2158249;90;25920;-76
2021/07/28 15:11:49;;;;;;;4.65;2.22;;;;;;;40.03;23.44;99507.66;2109933;93;25836;-79
2021/07/28 15:19:18;;;;;;;2.60;2.40;;;;;;;39.64;23.71;99498.87;2046361;94;25846;-76
2021/07/28 15:27:00;;;;;;;;;;;;;;;;;;;;;
2021/07/28 15:30:26;;;;;;;;;;;;;;;39.12;24.15;99478.25;2024501;95;25820;-80
2021/07/28 15:33:47;;;;;;;4.60;3.00;;;;;;;38.94;24.22;99478.38;2024333;96;25903;-80
2021/07/28 15:37:08;;;;;;;3.77;3.10;;;;;;;38.74;24.47;99471.52;2025299;96;25795;-81
2021/07/28 15:40:33;;;;;;;3.02;2.83;;;;;;;38.62;24.60;99469.63;2024667;95;25706;-80
2021/07/28 15:44:02;;;;;;;3.75;3.45;;;;;;;38.49;24.74;99465.17;2023784;96;25413;-80
2021/07/28 15:47:58;;;;;;;3.35;2.58;;;;;;;38.33;24.89;99463.20;2072566;92;26126;-75
2021/07/28 15:51:29;;;;;;;;;;;;;;;38.15;25.07;99451.58;2077109;92;25745;-76
2021/07/28 15:55:02;;;;;;;8.50;3.02;;;;;;;37.99;25.30;99440.95;2084994;92;25844;-79
2021/07/28 15:58:36;;;;;;;3.50;3.20;;;;;;;37.83;25.38;99442.20;2114178;90;25796;-76
2021/07/28 16:02:35;;;;;;;;;;;;;;;;;;;;;
2021/07/28 16:05:56;;;;;;;3.15;2.90;;;;;;;37.52;25.72;99434.54;2372742;81;25814;-78
2021/07/28 16:09:22;;;;;;;3.47;3.08;;;;;;;37.40;25.84;99434.96;2441608;79;25580;-79
2021/07/28 16:13:09;;;;;;;;;;;;;;;37.21;25.93;99423.77;2331309;83;26827;-75
2021/07/28 16:16:55;;;;;;;4.08;3.02;;;;;;;37.05;26.01;99421.25;2341874;82;25822;-80
2021/07/28 16:20:25;;;;;;;3.35;2.80;;;;;;;36.86;26.07;99417.34;2228464;86;25303;-79
2021/07/28 16:24:52;;;;;;;4.08;2.92;;;;;;;36.76;26.15;99418.78;2228527;87;25309;-79
2021/07/28 16:28:47;;;;;;;3.72;3.17;;;;;;;36.70;26.15;99411.76;2220818;87;25477;-78
2021/07/28 16:32:48;;;;;;;3.40;3.20;;;;;;;36.56;26.17;99403.14;2222257;87;26051;-80
2021/07/28 16:36:23;;;;;;;3.55;3.05;;;;;;;36.50;26.24;99407.83;2191972;89;25724;-78
2021/07/28 16:39:56;;;;;;;4.10;2.98;;;;;;;36.41;26.33;99408.20;2191024;90;25752;-75
2021/07/28 16:43:52;;;;;;;3.80;3.22;;;;;;;36.38;26.39;99407.65;2191227;90;25832;-75
2021/07/28 16:47:27;;;;;;;2.55;2.27;;;;;;;36.30;26.53;99411.14;2158769;90;25563;-79
2021/07/28 16:50:57;;;;;;;5.85;3.50;;;;;;;36.20;26.59;99404.92;2157535;91;25813;-76
2021/07/28 16:54:22;;;;;;;3.15;2.85;;;;;;;36.11;26.65;99406.70;2150265;88;25553;-79
2021/07/28 16:57:49;;;;;;;3.77;3.47;;;;;;;36.05;26.77;99414.59;2155177;90;25850;-75
2021/07/28 17:01:25;;;;;;;2.98;2.77;;;;;;;35.94;26.80;99423.72;2157030;90;25688;-77
2021/07/28 17:04:57;;;;;;;3.12;2.85;;;;;;;35.84;26.95;99431.89;2156239;91;25868;-80
2021/07/28 17:08:31;;;;;;;3.25;2.62;;;;;;;35.75;27.09;99424.67;2175595;88;26420;-75
2021/07/28 17:12:01;;;;;;;4.55;2.85;;;;;;;35.62;27.28;99426.36;2258269;83;25719;-75
2021/07/28 17:15:26;;;;;;;3.02;2.70;;;;;;;35.51;27.37;99424.30;2334575;83;25779;-79
2021/07/28 17:19:23;;;;;;;5.85;3.12;;;;;;;35.41;27.55;99422.97;2335738;83;25612;-75
2021/07/28 17:22:43;;;;;;;7.25;3.00;;;;;;;35.28;27.66;99417.86;2332738;83;25648;-80
2021/07/28 17:26:04;;;;;;;6.85;2.85;;;;;;;35.19;27.74;99407.37;2333740;83;26179;-79
2021/07/28 17:29:43;;;;;;;6.03;2.90;;;;;;;35.11;27.87;99404.55;2334328;83;25829;-79
2021/07/28 17:33:04;;;;;;;9.13;2.95;;;;;;;35.02;27.99;99397.28;2335410;83;25876;-77
2021/07/28 17:36:55;;;;;;;;;;;;;;;;;;;;;
2021/07/28 17:40:27;;;;;;;4.30;2.77;;;;;;;34.92;28.25;99397.77;2332488;83;25663;-79
2021/07/28 17:43:50;;;;;;;9.20;3.75;;;;;;;34.85;28.32;99392.57;2425965;79;25834;-79
2021/07/28 17:47:19;;;;;;;4.08;2.80;;;;;;;34.74;28.50;99392.22;2473152;79;25618;-75
2021/07/28 17:50:49;;;;;;;4.80;2.90;;;;;;;34.67;28.63;99388.38;2324796;83;25761;-75
2021/07/28 17:54:12;;;;;;;3.58;3.27;;;;;;;34.57;28.77;99391.58;2348816;83;25620;-80
2021/07/28 17:57:35;;;;;;;5.15;3.25;;;;;;;34.48;28.88;99390.53;2327079;83;25805;-80
2021/07/28 18:00:58;;;;;;;4.17;3.10;;;;;;;34.39;29.00;99385.95;2325077;83;25684;-75
2021/07/28 18:04:23;;;;;;;3.35;3.15;;;;;;;34.29;29.14;99391.34;2322487;83;25670;-80
2021/07/28 18:07:58;;;;;;;4.40;3.30;;;;;;;34.20;29.37;99398.46;2329504;83;25750;-79
2021/07/28 18:11:31;;;;;;;4.62;3.00;;;;;;;34.13;29.44;99397.31;2318435;83;25598;-77
2021/07/28 18:14:52;;;;;;;3.60;3.02;;;;;;;34.02;29.61;99400.99;2336960;83;26448;-78
2021/07/28 18:18:20;;;;;;;4.15;3.37;;;;;;;33.95;29.73;99411.09;2340632;83;25658;-80
2021/07/28 18:21:44;;;;;;;6.27;4.37;;;;;;;33.86;29.89;99415.48;2327638;83;25590;-79
2021/07/28 18:25:09;;;;;;;3.52;3.10;;;;;;;33.77;30.06;99414.94;2323961;82;25604;-75
2021/07/28 18:28:30;;;;;;;4.25;3.30;;;;;;;33.69;30.25;99413.42;2340351;83;25797;-79
2021/07/28 18:32:01;;;;;;;;;;;;;;;;;;;;;
2021/07/28 18:35:22;;;;;;;5.03;3.37;;;;;;;33.59;30.48;99424.18;2332115;83;25675;-79
2021/07/28 18:38:59;;;;;;;4.37;3.45;;;;;;;33.51;30.59;99415.87;2327811;81;25340;-80
2021/07/28 18:42:26;;;;;;;8.05;4.10;;;;;;;33.40;30.75;99416.77;2322881;82;25651;-77
2021/07/28 18:45:57;;;;;;;;;;;;;;;;;;;;;
2021/07/28 18:49:39;;;;;;;4.12;3.72;;;;;;;33.25;31.07;99420.82;2446310;79;25981;-78
2021/07/28 18:53:14;;;;;;;4.37;3.87;;;;;;;33.19;31.21;99419.49;2471242;78;25690;-80
2021/07/28 18:56:58;;;;;;;8.93;3.72;;;;;;;33.13;31.30;99420.02;2465310;79;25692;-77
2021/07/28 19:00:23;;;;;;;4.30;3.50;;;;;;;33.06;31.42;99429.13;2463885;79;25603;-80
2021/07/28 19:04:15;;;;;;;;;;;;;;;;;;;;;
2021/07/28 19:07:51;;;;;;;3.98;3.37;;;;;;;32.98;31.66;99433.48;2304666;83;25658;-73
2021/07/28 19:11:28;;;;;;;;;;;;;;;32.94;31.78;99488.20;2330904;83;25658;-77
2021/07/28 19:14:51;;;;;;;3.72;3.35;;;;;;;32.84;32.44;99501.61;2339772;82;26448;-80
2021/07/28 19:18:22;;;;;;;5.70;3.37;;;;;;;32.74;32.81;99507.88;2351041;82;25690;-79
2021/07/28 19:21:59;;;;;;;13.10;4.03;;;;;;;32.64;33.30;99494.31;2339966;82;25235;-79
2021/07/28 19:25:22;;;;;;;4.33;3.35;;;;;;;32.54;33.75;99501.45;2263152;84;26703;-81
2021/07/28 19:28:56;;;;;;;8.18;3.60;;;;;;;32.44;34.26;99509.43;2259049;84;25826;-80
2021/07/28 19:32:20;;;;;;;5.97;3.17;;;;;;;32.39;34.57;99507.05;2266309;84;26442;-78
2021/07/28 19:35:42;;;;;;;4.75;3.45;;;;;;;32.33;34.90;99508.92;2229695;87;25837;-80
2021/07/28 19:39:15;;;;;;;6.92;3.65;;;;;;;32.26;35.25;99518.95;2255636;86;26034;-81
2021/07/28 19:42:42;;;;;;;5.62;2.90;;;;;;;32.16;35.58;99514.33;2228408;86;25751;-82
2021/07/28 19:46:37;;;;;;;5.03;3.05;;;;;;;32.09;35.87;99515.77;2186636;87;25764;-76
2021/07/28 19:50:34;;;;;;;7.53;2.95;;;;;;;32.04;36.26;99513.09;2237833;86;25752;-80
2021/07/28 19:54:01;;;;;;;3.98;3.27;;;;;;;31.96;36.43;99509.62;2249961;86;25701;-80
2021/07/28 19:57:24;;;;;;;4.12;2.92;;;;;;;31.87;36.79;99509.89;2253496;84;25856;-79
2021/07/28 20:01:12;;;;;;;6.37;3.30;;;;;;;31.81;36.99;99526.99;2337522;83;26569;-82
2021/07/28 20:04:33;;;;;;;6.85;2.95;;;;;;;31.75;37.18;99531.02;2339280;84;25847;-80
2021/07/28 20:08:03;;;;;;;5.08;3.00;;;;;;;31.69;37.42;99548.55;2339120;83;26854;-76
2021/07/28 20:11:33;;;;;;;2.95;2.75;;;;;;;31.61;37.67;99603.98;2338206;83;25846;-81
2021/07/28 20:15:27;;;;;;;2.83;2.30;;;;;;;31.51;37.96;99633.45;2338230;83;25828;-79
2021/07/28 20:18:48;;;;;;;2.98;2.77;;;;;;;31.43;38.21;99625.11;2339357;83;25678;-80
2021/07/28 20:22:09;;;;;;;3.90;2.85;;;;;;;31.32;38.54;99651.50;2341300;81;25735;-80
2021/07/28 20:25:47;;;;;;;3.00;2.70;;;;;;;31.22;38.95;99645.91;2339144;83;25865;-79
2021/07/28 20:29:25;;;;;;;4.53;2.70;;;;;;;31.10;39.43;99645.45;2314621;83;25793;-75
2021/07/28 20:33:22;;;;;;;2.80;2.47;;;;;;;30.98;39.85;99635.56;2418712;80;25269;-76
2021/07/28 20:36:50;;;;;;;6.15;2.22;;;;;;;30.87;40.25;99641.73;2454547;80;25291;-79
2021/07/28 20:40:48;;;;;;;4.17;2.77;;;;;;;30.79;40.68;99640.09;2444961;78;25928;-80
2021/07/28 20:44:30;;;;;;;6.37;2.62;;;;;;;30.74;40.92;99643.55;2460561;80;25573;-80
2021/07/28 20:48:09;;;;;;;3.42;3.02;;;;;;;30.68;41.15;99621.13;2326562;82;25584;-77
2021/07/28 20:52:05;;;;;;;;;;;;;;;;;;;;;
2021/07/28 20:55:37;;;;;;;3.27;2.58;;;;;;;30.53;41.77;99596.20;2188853;89;25764;-76
2021/07/28 20:59:17;;;;;;;3.72;2.75;;;;;;;30.50;42.08;99587.00;2200516;88;25792;-76